sensor_id;sensor_type;location;lat;lon;timestamp;P1;durP1;ratioP1;P2;durP2;ratioP2
18596;SDS011;9428;50.950;6.912;2023-05-10T00:02:31;9.68;;;8.20;;
18596;SDS011;9428;50.950;6.912;2023-05-10T00:05:18;8.70;;;7.72;;
18596;SDS011;9428;50.950;6.912;2023-05-10T00:08:05;9.60;;;7.97;;
18596;SDS011;9428;50.950;6.912;2023-05-10T00:10:54;11.38;;;7.90;;
18596;SDS011;9428;50.950;6.912;2023-05-10T00:13:41;12.45;;;7.78;;
18596;SDS011;9428;50.950;6.912;2023-05-10T00:16:28;9.98;;;8.55;;
18596;SDS011;9428;50.950;6.912;2023-05-10T00:19:16;9.40;;;7.97;;
18596;SDS011;9428;50.950;6.912;2023-05-10T00:22:03;11.45;;;9.18;;
18596;SDS011;9428;50.950;6.912;2023-05-10T00:24:50;11.38;;;8.82;;
18596;SDS011;9428;50.950;6.912;2023-05-10T00:27:39;11.52;;;9.73;;
18596;SDS011;9428;50.950;6.912;2023-05-10T00:30:26;11.88;;;9.52;;
18596;SDS011;9428;50.950;6.912;2023-05-10T00:33:13;13.95;;;9.68;;
18596;SDS011;9428;50.950;6.912;2023-05-10T00:36:00;13.00;;;9.80;;
18596;SDS011;9428;50.950;6.912;2023-05-10T00:38:47;12.55;;;9.82;;
18596;SDS011;9428;50.950;6.912;2023-05-10T00:41:35;13.15;;;9.60;;
18596;SDS011;9428;50.950;6.912;2023-05-10T00:44:23;14.50;;;10.55;;
18596;SDS011;9428;50.950;6.912;2023-05-10T00:47:11;15.63;;;10.35;;
18596;SDS011;9428;50.950;6.912;2023-05-10T00:49:58;14.68;;;10.30;;
18596;SDS011;9428;50.950;6.912;2023-05-10T00:52:46;14.60;;;10.80;;
18596;SDS011;9428;50.950;6.912;2023-05-10T00:55:34;15.07;;;10.52;;
18596;SDS011;9428;50.950;6.912;2023-05-10T00:58:21;13.50;;;10.48;;
18596;SDS011;9428;50.950;6.912;2023-05-10T01:01:14;14.77;;;10.20;;
18596;SDS011;9428;50.950;6.912;2023-05-10T01:04:01;16.05;;;10.90;;
18596;SDS011;9428;50.950;6.912;2023-05-10T01:06:49;15.35;;;10.88;;
18596;SDS011;9428;50.950;6.912;2023-05-10T01:09:36;15.40;;;10.88;;
18596;SDS011;9428;50.950;6.912;2023-05-10T01:12:24;19.70;;;10.70;;
18596;SDS011;9428;50.950;6.912;2023-05-10T01:15:11;13.82;;;9.70;;
18596;SDS011;9428;50.950;6.912;2023-05-10T01:18:02;14.00;;;10.38;;
18596;SDS011;9428;50.950;6.912;2023-05-10T01:20:53;14.82;;;10.10;;
18596;SDS011;9428;50.950;6.912;2023-05-10T01:24:11;15.93;;;10.30;;
18596;SDS011;9428;50.950;6.912;2023-05-10T01:27:20;15.73;;;9.70;;
18596;SDS011;9428;50.950;6.912;2023-05-10T01:33:56;15.02;;;10.35;;
18596;SDS011;9428;50.950;6.912;2023-05-10T01:36:50;15.93;;;10.20;;
18596;SDS011;9428;50.950;6.912;2023-05-10T01:39:47;12.68;;;9.85;;
18596;SDS011;9428;50.950;6.912;2023-05-10T01:42:42;15.25;;;10.02;;
18596;SDS011;9428;50.950;6.912;2023-05-10T01:45:39;13.70;;;10.52;;
18596;SDS011;9428;50.950;6.912;2023-05-10T01:48:32;12.70;;;9.52;;
18596;SDS011;9428;50.950;6.912;2023-05-10T01:51:23;15.20;;;10.43;;
18596;SDS011;9428;50.950;6.912;2023-05-10T01:54:13;12.48;;;10.25;;
18596;SDS011;9428;50.950;6.912;2023-05-10T01:57:06;14.00;;;10.32;;
18596;SDS011;9428;50.950;6.912;2023-05-10T01:59:57;15.15;;;10.55;;
18596;SDS011;9428;50.950;6.912;2023-05-10T02:02:48;16.83;;;10.50;;
18596;SDS011;9428;50.950;6.912;2023-05-10T02:05:36;13.50;;;9.70;;
18596;SDS011;9428;50.950;6.912;2023-05-10T02:08:25;13.88;;;10.43;;
18596;SDS011;9428;50.950;6.912;2023-05-10T02:11:13;14.57;;;9.88;;
18596;SDS011;9428;50.950;6.912;2023-05-10T02:14:00;15.50;;;10.38;;
18596;SDS011;9428;50.950;6.912;2023-05-10T02:16:48;14.40;;;10.52;;
18596;SDS011;9428;50.950;6.912;2023-05-10T02:19:39;13.70;;;9.25;;
18596;SDS011;9428;50.950;6.912;2023-05-10T02:22:28;14.57;;;9.65;;
18596;SDS011;9428;50.950;6.912;2023-05-10T02:25:16;15.35;;;9.93;;
18596;SDS011;9428;50.950;6.912;2023-05-10T02:28:06;13.30;;;9.63;;
18596;SDS011;9428;50.950;6.912;2023-05-10T02:30:55;15.98;;;9.43;;
18596;SDS011;9428;50.950;6.912;2023-05-10T02:33:43;11.15;;;8.07;;
18596;SDS011;9428;50.950;6.912;2023-05-10T02:36:32;10.23;;;7.03;;
18596;SDS011;9428;50.950;6.912;2023-05-10T02:39:20;9.98;;;6.82;;
18596;SDS011;9428;50.950;6.912;2023-05-10T02:42:10;7.68;;;5.78;;
18596;SDS011;9428;50.950;6.912;2023-05-10T02:45:03;9.07;;;5.88;;
18596;SDS011;9428;50.950;6.912;2023-05-10T02:47:54;11.45;;;6.43;;
18596;SDS011;9428;50.950;6.912;2023-05-10T02:50:42;8.18;;;5.63;;
18596;SDS011;9428;50.950;6.912;2023-05-10T02:53:33;8.15;;;5.15;;
18596;SDS011;9428;50.950;6.912;2023-05-10T02:56:23;7.38;;;5.70;;
18596;SDS011;9428;50.950;6.912;2023-05-10T02:59:19;7.45;;;4.80;;
18596;SDS011;9428;50.950;6.912;2023-05-10T03:02:06;9.20;;;5.53;;
18596;SDS011;9428;50.950;6.912;2023-05-10T03:04:54;8.40;;;5.70;;
18596;SDS011;9428;50.950;6.912;2023-05-10T03:07:41;7.00;;;5.15;;
18596;SDS011;9428;50.950;6.912;2023-05-10T03:10:29;7.43;;;5.40;;
18596;SDS011;9428;50.950;6.912;2023-05-10T03:13:20;8.52;;;5.18;;
18596;SDS011;9428;50.950;6.912;2023-05-10T03:16:18;6.60;;;5.28;;
18596;SDS011;9428;50.950;6.912;2023-05-10T03:19:11;7.15;;;5.80;;
18596;SDS011;9428;50.950;6.912;2023-05-10T03:22:03;9.85;;;5.60;;
18596;SDS011;9428;50.950;6.912;2023-05-10T03:24:55;6.10;;;4.85;;
18596;SDS011;9428;50.950;6.912;2023-05-10T03:27:44;7.60;;;5.30;;
18596;SDS011;9428;50.950;6.912;2023-05-10T03:30:32;10.85;;;5.50;;
18596;SDS011;9428;50.950;6.912;2023-05-10T03:33:22;8.85;;;6.03;;
18596;SDS011;9428;50.950;6.912;2023-05-10T03:36:09;7.50;;;5.97;;
18596;SDS011;9428;50.950;6.912;2023-05-10T03:38:56;7.78;;;6.45;;
18596;SDS011;9428;50.950;6.912;2023-05-10T03:41:44;15.35;;;6.90;;
18596;SDS011;9428;50.950;6.912;2023-05-10T03:44:31;10.75;;;7.00;;
18596;SDS011;9428;50.950;6.912;2023-05-10T03:47:18;11.25;;;8.02;;
18596;SDS011;9428;50.950;6.912;2023-05-10T03:50:07;12.95;;;8.80;;
18596;SDS011;9428;50.950;6.912;2023-05-10T03:52:55;13.88;;;9.55;;
18596;SDS011;9428;50.950;6.912;2023-05-10T03:55:43;13.43;;;9.35;;
18596;SDS011;9428;50.950;6.912;2023-05-10T03:58:30;15.77;;;9.23;;
18596;SDS011;9428;50.950;6.912;2023-05-10T04:01:17;16.25;;;10.40;;
18596;SDS011;9428;50.950;6.912;2023-05-10T04:04:04;16.95;;;10.43;;
18596;SDS011;9428;50.950;6.912;2023-05-10T04:06:53;16.70;;;10.50;;
18596;SDS011;9428;50.950;6.912;2023-05-10T04:09:40;20.63;;;12.18;;
18596;SDS011;9428;50.950;6.912;2023-05-10T04:12:27;16.45;;;10.18;;
18596;SDS011;9428;50.950;6.912;2023-05-10T04:15:14;18.50;;;11.05;;
18596;SDS011;9428;50.950;6.912;2023-05-10T04:18:02;17.38;;;11.38;;
18596;SDS011;9428;50.950;6.912;2023-05-10T04:20:49;19.30;;;12.00;;
18596;SDS011;9428;50.950;6.912;2023-05-10T04:23:37;20.63;;;13.02;;
18596;SDS011;9428;50.950;6.912;2023-05-10T04:26:26;18.25;;;12.13;;
18596;SDS011;9428;50.950;6.912;2023-05-10T04:29:14;18.77;;;11.80;;
18596;SDS011;9428;50.950;6.912;2023-05-10T04:32:01;15.82;;;11.45;;
18596;SDS011;9428;50.950;6.912;2023-05-10T04:34:48;20.17;;;12.80;;
18596;SDS011;9428;50.950;6.912;2023-05-10T04:37:36;21.35;;;12.93;;
18596;SDS011;9428;50.950;6.912;2023-05-10T04:40:25;22.63;;;12.13;;
18596;SDS011;9428;50.950;6.912;2023-05-10T04:43:12;18.92;;;12.65;;
18596;SDS011;9428;50.950;6.912;2023-05-10T04:45:59;19.38;;;12.77;;
18596;SDS011;9428;50.950;6.912;2023-05-10T04:48:47;24.08;;;12.55;;
18596;SDS011;9428;50.950;6.912;2023-05-10T04:51:34;17.08;;;11.75;;
18596;SDS011;9428;50.950;6.912;2023-05-10T04:54:21;24.52;;;13.10;;
18596;SDS011;9428;50.950;6.912;2023-05-10T04:57:10;25.90;;;13.23;;
18596;SDS011;9428;50.950;6.912;2023-05-10T04:59:57;21.77;;;12.48;;
18596;SDS011;9428;50.950;6.912;2023-05-10T05:02:45;19.38;;;13.30;;
18596;SDS011;9428;50.950;6.912;2023-05-10T05:05:32;23.02;;;12.55;;
18596;SDS011;9428;50.950;6.912;2023-05-10T05:08:19;21.63;;;12.57;;
18596;SDS011;9428;50.950;6.912;2023-05-10T05:11:06;23.90;;;13.75;;
18596;SDS011;9428;50.950;6.912;2023-05-10T05:13:55;22.42;;;12.98;;
18596;SDS011;9428;50.950;6.912;2023-05-10T05:16:44;19.38;;;12.40;;
18596;SDS011;9428;50.950;6.912;2023-05-10T05:19:31;21.45;;;13.18;;
18596;SDS011;9428;50.950;6.912;2023-05-10T05:22:18;19.63;;;11.82;;
18596;SDS011;9428;50.950;6.912;2023-05-10T05:25:12;19.23;;;12.02;;
18596;SDS011;9428;50.950;6.912;2023-05-10T05:28:00;25.17;;;12.90;;
18596;SDS011;9428;50.950;6.912;2023-05-10T05:30:49;24.33;;;11.93;;
18596;SDS011;9428;50.950;6.912;2023-05-10T05:33:36;19.05;;;11.57;;
18596;SDS011;9428;50.950;6.912;2023-05-10T05:36:23;20.15;;;11.52;;
18596;SDS011;9428;50.950;6.912;2023-05-10T05:39:11;21.98;;;12.48;;
18596;SDS011;9428;50.950;6.912;2023-05-10T05:41:58;21.63;;;11.77;;
18596;SDS011;9428;50.950;6.912;2023-05-10T05:44:45;21.52;;;11.10;;
18596;SDS011;9428;50.950;6.912;2023-05-10T05:47:34;23.00;;;11.10;;
18596;SDS011;9428;50.950;6.912;2023-05-10T05:50:21;15.52;;;10.30;;
18596;SDS011;9428;50.950;6.912;2023-05-10T05:53:08;18.45;;;10.55;;
18596;SDS011;9428;50.950;6.912;2023-05-10T05:55:56;18.02;;;10.77;;
18596;SDS011;9428;50.950;6.912;2023-05-10T05:58:44;20.67;;;11.20;;
18596;SDS011;9428;50.950;6.912;2023-05-10T06:01:32;19.10;;;10.93;;
18596;SDS011;9428;50.950;6.912;2023-05-10T06:04:20;22.00;;;10.55;;
18596;SDS011;9428;50.950;6.912;2023-05-10T06:07:08;20.67;;;10.73;;
18596;SDS011;9428;50.950;6.912;2023-05-10T06:09:55;17.23;;;10.45;;
18596;SDS011;9428;50.950;6.912;2023-05-10T06:12:42;17.13;;;9.68;;
18596;SDS011;9428;50.950;6.912;2023-05-10T06:15:29;21.05;;;9.57;;
18596;SDS011;9428;50.950;6.912;2023-05-10T06:18:17;15.88;;;9.60;;
18596;SDS011;9428;50.950;6.912;2023-05-10T06:21:06;17.42;;;9.63;;
18596;SDS011;9428;50.950;6.912;2023-05-10T06:23:53;16.80;;;9.38;;
18596;SDS011;9428;50.950;6.912;2023-05-10T06:26:40;18.20;;;9.75;;
18596;SDS011;9428;50.950;6.912;2023-05-10T06:29:28;18.80;;;9.55;;
18596;SDS011;9428;50.950;6.912;2023-05-10T06:32:15;16.52;;;9.02;;
18596;SDS011;9428;50.950;6.912;2023-05-10T06:35:02;16.77;;;10.68;;
18596;SDS011;9428;50.950;6.912;2023-05-10T06:37:51;17.73;;;9.82;;
18596;SDS011;9428;50.950;6.912;2023-05-10T06:40:40;19.95;;;10.18;;
18596;SDS011;9428;50.950;6.912;2023-05-10T06:43:28;19.75;;;10.43;;
18596;SDS011;9428;50.950;6.912;2023-05-10T06:46:15;19.45;;;10.68;;
18596;SDS011;9428;50.950;6.912;2023-05-10T06:49:02;18.25;;;11.15;;
18596;SDS011;9428;50.950;6.912;2023-05-10T06:51:49;24.70;;;11.25;;
18596;SDS011;9428;50.950;6.912;2023-05-10T06:54:38;19.90;;;11.65;;
18596;SDS011;9428;50.950;6.912;2023-05-10T06:57:25;20.40;;;12.48;;
18596;SDS011;9428;50.950;6.912;2023-05-10T07:00:13;25.90;;;11.77;;
18596;SDS011;9428;50.950;6.912;2023-05-10T07:03:01;18.95;;;11.90;;
18596;SDS011;9428;50.950;6.912;2023-05-10T07:05:48;18.73;;;11.35;;
18596;SDS011;9428;50.950;6.912;2023-05-10T07:08:35;20.45;;;11.93;;
18596;SDS011;9428;50.950;6.912;2023-05-10T07:11:24;20.90;;;12.68;;
18596;SDS011;9428;50.950;6.912;2023-05-10T07:14:12;19.13;;;11.82;;
18596;SDS011;9428;50.950;6.912;2023-05-10T07:16:59;22.02;;;11.88;;
18596;SDS011;9428;50.950;6.912;2023-05-10T07:19:46;20.67;;;11.93;;
18596;SDS011;9428;50.950;6.912;2023-05-10T07:22:33;22.58;;;11.40;;
18596;SDS011;9428;50.950;6.912;2023-05-10T07:25:20;17.05;;;11.45;;
18596;SDS011;9428;50.950;6.912;2023-05-10T07:28:09;22.33;;;12.23;;
18596;SDS011;9428;50.950;6.912;2023-05-10T07:30:56;19.90;;;12.00;;
18596;SDS011;9428;50.950;6.912;2023-05-10T07:33:44;24.90;;;11.13;;
18596;SDS011;9428;50.950;6.912;2023-05-10T07:36:31;17.48;;;10.48;;
18596;SDS011;9428;50.950;6.912;2023-05-10T07:39:18;20.70;;;11.98;;
18596;SDS011;9428;50.950;6.912;2023-05-10T07:42:05;21.40;;;13.63;;
18596;SDS011;9428;50.950;6.912;2023-05-10T07:44:55;19.70;;;11.75;;
18596;SDS011;9428;50.950;6.912;2023-05-10T07:47:42;23.85;;;11.70;;
18596;SDS011;9428;50.950;6.912;2023-05-10T07:50:29;16.00;;;10.73;;
18596;SDS011;9428;50.950;6.912;2023-05-10T07:53:16;19.73;;;12.40;;
18596;SDS011;9428;50.950;6.912;2023-05-10T07:56:19;20.75;;;12.40;;
18596;SDS011;9428;50.950;6.912;2023-05-10T07:59:08;17.05;;;10.73;;
18596;SDS011;9428;50.950;6.912;2023-05-10T08:01:57;20.65;;;12.02;;
18596;SDS011;9428;50.950;6.912;2023-05-10T08:04:44;21.35;;;10.73;;
18596;SDS011;9428;50.950;6.912;2023-05-10T08:07:31;22.73;;;11.85;;
18596;SDS011;9428;50.950;6.912;2023-05-10T08:10:19;22.13;;;11.82;;
18596;SDS011;9428;50.950;6.912;2023-05-10T08:13:06;17.05;;;10.57;;
18596;SDS011;9428;50.950;6.912;2023-05-10T08:15:53;20.33;;;10.70;;
18596;SDS011;9428;50.950;6.912;2023-05-10T08:18:42;18.75;;;9.85;;
18596;SDS011;9428;50.950;6.912;2023-05-10T08:21:32;16.80;;;10.25;;
18596;SDS011;9428;50.950;6.912;2023-05-10T08:24:19;18.48;;;10.52;;
18596;SDS011;9428;50.950;6.912;2023-05-10T08:27:07;16.75;;;9.18;;
18596;SDS011;9428;50.950;6.912;2023-05-10T08:29:54;12.90;;;8.65;;
18596;SDS011;9428;50.950;6.912;2023-05-10T08:32:41;13.27;;;7.50;;
18596;SDS011;9428;50.950;6.912;2023-05-10T08:35:30;12.20;;;7.32;;
18596;SDS011;9428;50.950;6.912;2023-05-10T08:38:18;12.27;;;7.25;;
18596;SDS011;9428;50.950;6.912;2023-05-10T08:41:05;13.73;;;7.63;;
18596;SDS011;9428;50.950;6.912;2023-05-10T08:43:53;11.70;;;8.25;;
18596;SDS011;9428;50.950;6.912;2023-05-10T08:46:41;16.08;;;7.72;;
18596;SDS011;9428;50.950;6.912;2023-05-10T08:49:30;12.27;;;8.13;;
18596;SDS011;9428;50.950;6.912;2023-05-10T08:52:19;12.13;;;8.05;;
18596;SDS011;9428;50.950;6.912;2023-05-10T08:55:08;11.88;;;8.35;;
18596;SDS011;9428;50.950;6.912;2023-05-10T08:57:55;14.05;;;8.65;;
18596;SDS011;9428;50.950;6.912;2023-05-10T09:00:43;13.52;;;8.82;;
18596;SDS011;9428;50.950;6.912;2023-05-10T09:03:30;14.82;;;9.27;;
18596;SDS011;9428;50.950;6.912;2023-05-10T09:06:18;14.98;;;9.65;;
18596;SDS011;9428;50.950;6.912;2023-05-10T09:09:07;17.13;;;9.35;;
18596;SDS011;9428;50.950;6.912;2023-05-10T09:11:54;16.10;;;9.18;;
18596;SDS011;9428;50.950;6.912;2023-05-10T09:14:42;14.05;;;10.02;;
18596;SDS011;9428;50.950;6.912;2023-05-10T09:17:30;15.75;;;10.23;;
18596;SDS011;9428;50.950;6.912;2023-05-10T09:20:18;18.75;;;10.90;;
18596;SDS011;9428;50.950;6.912;2023-05-10T09:23:05;17.90;;;10.20;;
18596;SDS011;9428;50.950;6.912;2023-05-10T09:26:02;11.63;;;8.82;;
18596;SDS011;9428;50.950;6.912;2023-05-10T09:28:50;14.95;;;9.57;;
18596;SDS011;9428;50.950;6.912;2023-05-10T09:31:45;24.17;;;13.45;;
18596;SDS011;9428;50.950;6.912;2023-05-10T09:34:36;23.73;;;13.40;;
18596;SDS011;9428;50.950;6.912;2023-05-10T09:37:29;21.35;;;11.35;;
18596;SDS011;9428;50.950;6.912;2023-05-10T09:40:16;15.82;;;9.85;;
18596;SDS011;9428;50.950;6.912;2023-05-10T09:43:07;18.65;;;10.25;;
18596;SDS011;9428;50.950;6.912;2023-05-10T09:45:56;18.40;;;10.10;;
18596;SDS011;9428;50.950;6.912;2023-05-10T09:48:44;14.75;;;9.02;;
18596;SDS011;9428;50.950;6.912;2023-05-10T09:51:32;16.83;;;10.05;;
18596;SDS011;9428;50.950;6.912;2023-05-10T09:54:21;16.02;;;10.07;;
18596;SDS011;9428;50.950;6.912;2023-05-10T09:57:10;18.60;;;10.10;;
18596;SDS011;9428;50.950;6.912;2023-05-10T10:00:09;19.33;;;9.55;;
18596;SDS011;9428;50.950;6.912;2023-05-10T10:02:58;14.27;;;9.20;;
18596;SDS011;9428;50.950;6.912;2023-05-10T10:05:46;18.35;;;10.05;;
18596;SDS011;9428;50.950;6.912;2023-05-10T10:08:34;16.83;;;10.32;;
18596;SDS011;9428;50.950;6.912;2023-05-10T10:11:21;14.90;;;9.32;;
18596;SDS011;9428;50.950;6.912;2023-05-10T10:14:10;13.77;;;8.80;;
18596;SDS011;9428;50.950;6.912;2023-05-10T10:17:00;13.73;;;8.13;;
18596;SDS011;9428;50.950;6.912;2023-05-10T10:19:48;12.63;;;8.63;;
18596;SDS011;9428;50.950;6.912;2023-05-10T10:22:36;10.80;;;7.28;;
18596;SDS011;9428;50.950;6.912;2023-05-10T10:25:23;11.50;;;7.72;;
18596;SDS011;9428;50.950;6.912;2023-05-10T10:28:16;12.40;;;8.13;;
18596;SDS011;9428;50.950;6.912;2023-05-10T10:31:13;15.40;;;8.35;;
18596;SDS011;9428;50.950;6.912;2023-05-10T10:34:06;11.88;;;7.20;;
18596;SDS011;9428;50.950;6.912;2023-05-10T10:36:59;15.90;;;8.00;;
18596;SDS011;9428;50.950;6.912;2023-05-10T10:39:51;12.68;;;7.13;;
18596;SDS011;9428;50.950;6.912;2023-05-10T10:42:44;11.80;;;6.50;;
18596;SDS011;9428;50.950;6.912;2023-05-10T10:45:32;10.90;;;7.03;;
18596;SDS011;9428;50.950;6.912;2023-05-10T10:48:20;7.85;;;5.60;;
18596;SDS011;9428;50.950;6.912;2023-05-10T10:51:09;14.23;;;7.00;;
18596;SDS011;9428;50.950;6.912;2023-05-10T10:53:58;12.23;;;7.05;;
18596;SDS011;9428;50.950;6.912;2023-05-10T10:57:11;14.77;;;8.15;;
18596;SDS011;9428;50.950;6.912;2023-05-10T11:00:22;14.18;;;8.10;;
18596;SDS011;9428;50.950;6.912;2023-05-10T11:03:11;13.57;;;8.07;;
18596;SDS011;9428;50.950;6.912;2023-05-10T11:06:02;13.25;;;8.13;;
18596;SDS011;9428;50.950;6.912;2023-05-10T11:08:51;11.23;;;7.05;;
18596;SDS011;9428;50.950;6.912;2023-05-10T11:11:48;12.30;;;6.35;;
18596;SDS011;9428;50.950;6.912;2023-05-10T11:14:37;8.13;;;5.05;;
18596;SDS011;9428;50.950;6.912;2023-05-10T11:17:24;9.32;;;5.38;;
18596;SDS011;9428;50.950;6.912;2023-05-10T11:20:14;9.32;;;5.22;;
18596;SDS011;9428;50.950;6.912;2023-05-10T11:23:10;7.45;;;4.60;;
18596;SDS011;9428;50.950;6.912;2023-05-10T11:26:02;8.65;;;4.47;;
18596;SDS011;9428;50.950;6.912;2023-05-10T11:28:51;5.35;;;3.85;;
18596;SDS011;9428;50.950;6.912;2023-05-10T11:31:43;6.43;;;4.00;;
18596;SDS011;9428;50.950;6.912;2023-05-10T11:34:32;6.13;;;3.75;;
18596;SDS011;9428;50.950;6.912;2023-05-10T11:37:19;5.82;;;3.85;;
18596;SDS011;9428;50.950;6.912;2023-05-10T11:40:07;6.47;;;4.03;;
18596;SDS011;9428;50.950;6.912;2023-05-10T11:42:56;5.97;;;3.92;;
18596;SDS011;9428;50.950;6.912;2023-05-10T11:45:44;4.32;;;3.38;;
18596;SDS011;9428;50.950;6.912;2023-05-10T11:48:32;5.47;;;3.67;;
18596;SDS011;9428;50.950;6.912;2023-05-10T11:51:19;5.28;;;3.45;;
18596;SDS011;9428;50.950;6.912;2023-05-10T11:54:08;3.65;;;2.80;;
18596;SDS011;9428;50.950;6.912;2023-05-10T11:56:57;6.43;;;3.17;;
18596;SDS011;9428;50.950;6.912;2023-05-10T11:59:45;3.58;;;2.90;;
18596;SDS011;9428;50.950;6.912;2023-05-10T12:02:33;3.53;;;2.85;;
18596;SDS011;9428;50.950;6.912;2023-05-10T12:05:20;3.75;;;2.15;;
18596;SDS011;9428;50.950;6.912;2023-05-10T12:08:11;5.38;;;2.63;;
18596;SDS011;9428;50.950;6.912;2023-05-10T12:11:05;2.80;;;2.38;;
18596;SDS011;9428;50.950;6.912;2023-05-10T12:13:54;4.55;;;2.80;;
18596;SDS011;9428;50.950;6.912;2023-05-10T12:16:43;2.50;;;2.28;;
18596;SDS011;9428;50.950;6.912;2023-05-10T12:19:36;4.13;;;2.95;;
18596;SDS011;9428;50.950;6.912;2023-05-10T12:22:24;3.80;;;3.17;;
18596;SDS011;9428;50.950;6.912;2023-05-10T12:25:11;3.42;;;2.95;;
18596;SDS011;9428;50.950;6.912;2023-05-10T12:27:58;4.43;;;2.83;;
18596;SDS011;9428;50.950;6.912;2023-05-10T12:30:47;3.40;;;2.08;;
18596;SDS011;9428;50.950;6.912;2023-05-10T12:33:38;4.03;;;2.40;;
18596;SDS011;9428;50.950;6.912;2023-05-10T12:36:27;3.20;;;2.35;;
18596;SDS011;9428;50.950;6.912;2023-05-10T12:39:15;2.97;;;2.42;;
18596;SDS011;9428;50.950;6.912;2023-05-10T12:42:02;2.55;;;2.35;;
18596;SDS011;9428;50.950;6.912;2023-05-10T12:44:49;3.85;;;2.30;;
18596;SDS011;9428;50.950;6.912;2023-05-10T12:47:41;2.22;;;2.00;;
18596;SDS011;9428;50.950;6.912;2023-05-10T12:50:30;3.22;;;2.03;;
18596;SDS011;9428;50.950;6.912;2023-05-10T12:53:17;2.20;;;2.00;;
18596;SDS011;9428;50.950;6.912;2023-05-10T12:56:05;2.60;;;2.40;;
18596;SDS011;9428;50.950;6.912;2023-05-10T12:58:53;3.72;;;2.00;;
18596;SDS011;9428;50.950;6.912;2023-05-10T13:01:40;2.35;;;1.85;;
18596;SDS011;9428;50.950;6.912;2023-05-10T13:04:27;2.38;;;1.73;;
18596;SDS011;9428;50.950;6.912;2023-05-10T13:07:16;2.50;;;2.10;;
18596;SDS011;9428;50.950;6.912;2023-05-10T13:10:03;2.85;;;2.10;;
18596;SDS011;9428;50.950;6.912;2023-05-10T13:12:51;3.55;;;2.10;;
18596;SDS011;9428;50.950;6.912;2023-05-10T13:15:38;3.85;;;1.98;;
18596;SDS011;9428;50.950;6.912;2023-05-10T13:18:25;2.90;;;1.83;;
18596;SDS011;9428;50.950;6.912;2023-05-10T13:21:12;1.80;;;1.60;;
18596;SDS011;9428;50.950;6.912;2023-05-10T13:24:01;3.22;;;1.75;;
18596;SDS011;9428;50.950;6.912;2023-05-10T13:26:48;3.03;;;1.70;;
18596;SDS011;9428;50.950;6.912;2023-05-10T13:29:35;1.83;;;1.50;;
18596;SDS011;9428;50.950;6.912;2023-05-10T13:32:23;1.95;;;1.80;;
18596;SDS011;9428;50.950;6.912;2023-05-10T13:35:10;1.83;;;1.60;;
18596;SDS011;9428;50.950;6.912;2023-05-10T13:37:58;1.70;;;1.45;;
18596;SDS011;9428;50.950;6.912;2023-05-10T13:40:46;2.25;;;1.60;;
18596;SDS011;9428;50.950;6.912;2023-05-10T13:43:37;6.13;;;2.72;;
18596;SDS011;9428;50.950;6.912;2023-05-10T13:46:24;1.75;;;1.60;;
18596;SDS011;9428;50.950;6.912;2023-05-10T13:49:12;3.13;;;1.58;;
18596;SDS011;9428;50.950;6.912;2023-05-10T13:51:59;4.07;;;1.55;;
18596;SDS011;9428;50.950;6.912;2023-05-10T13:54:51;5.15;;;1.60;;
18596;SDS011;9428;50.950;6.912;2023-05-10T13:57:41;2.15;;;1.38;;
18596;SDS011;9428;50.950;6.912;2023-05-10T14:00:28;1.30;;;1.20;;
18596;SDS011;9428;50.950;6.912;2023-05-10T14:03:16;2.50;;;1.35;;
18596;SDS011;9428;50.950;6.912;2023-05-10T14:06:03;1.55;;;1.10;;
18596;SDS011;9428;50.950;6.912;2023-05-10T14:08:52;1.25;;;1.15;;
18596;SDS011;9428;50.950;6.912;2023-05-10T14:11:40;1.88;;;1.50;;
18596;SDS011;9428;50.950;6.912;2023-05-10T14:14:29;1.80;;;1.00;;
18596;SDS011;9428;50.950;6.912;2023-05-10T14:17:17;3.25;;;1.25;;
18596;SDS011;9428;50.950;6.912;2023-05-10T14:20:05;1.55;;;1.00;;
18596;SDS011;9428;50.950;6.912;2023-05-10T14:22:53;1.77;;;1.15;;
18596;SDS011;9428;50.950;6.912;2023-05-10T14:25:40;2.75;;;1.10;;
18596;SDS011;9428;50.950;6.912;2023-05-10T14:28:28;2.53;;;1.58;;
18596;SDS011;9428;50.950;6.912;2023-05-10T14:31:16;2.53;;;1.58;;
18596;SDS011;9428;50.950;6.912;2023-05-10T14:34:05;4.03;;;1.75;;
18596;SDS011;9428;50.950;6.912;2023-05-10T14:36:52;1.30;;;1.20;;
18596;SDS011;9428;50.950;6.912;2023-05-10T14:39:40;1.98;;;1.45;;
18596;SDS011;9428;50.950;6.912;2023-05-10T14:42:27;2.47;;;1.45;;
18596;SDS011;9428;50.950;6.912;2023-05-10T14:45:14;1.20;;;1.10;;
18596;SDS011;9428;50.950;6.912;2023-05-10T14:48:03;3.83;;;1.30;;
18596;SDS011;9428;50.950;6.912;2023-05-10T14:50:51;2.17;;;1.33;;
18596;SDS011;9428;50.950;6.912;2023-05-10T14:53:38;2.38;;;1.67;;
18596;SDS011;9428;50.950;6.912;2023-05-10T14:56:25;2.15;;;1.70;;
18596;SDS011;9428;50.950;6.912;2023-05-10T14:59:13;6.28;;;1.77;;
18596;SDS011;9428;50.950;6.912;2023-05-10T15:02:00;2.78;;;1.50;;
18596;SDS011;9428;50.950;6.912;2023-05-10T15:04:49;2.95;;;1.75;;
18596;SDS011;9428;50.950;6.912;2023-05-10T15:07:37;4.53;;;1.73;;
18596;SDS011;9428;50.950;6.912;2023-05-10T15:10:24;2.33;;;1.40;;
18596;SDS011;9428;50.950;6.912;2023-05-10T15:13:11;2.17;;;1.67;;
18596;SDS011;9428;50.950;6.912;2023-05-10T15:15:58;2.55;;;1.80;;
18596;SDS011;9428;50.950;6.912;2023-05-10T15:18:46;2.20;;;1.60;;
18596;SDS011;9428;50.950;6.912;2023-05-10T15:21:35;2.78;;;1.73;;
18596;SDS011;9428;50.950;6.912;2023-05-10T15:24:24;2.65;;;1.60;;
18596;SDS011;9428;50.950;6.912;2023-05-10T15:27:11;2.90;;;2.00;;
18596;SDS011;9428;50.950;6.912;2023-05-10T15:29:59;3.60;;;1.80;;
18596;SDS011;9428;50.950;6.912;2023-05-10T15:32:46;2.30;;;1.88;;
18596;SDS011;9428;50.950;6.912;2023-05-10T15:35:34;4.72;;;1.90;;
18596;SDS011;9428;50.950;6.912;2023-05-10T15:38:25;2.00;;;1.65;;
18596;SDS011;9428;50.950;6.912;2023-05-10T15:41:12;2.47;;;1.65;;
18596;SDS011;9428;50.950;6.912;2023-05-10T15:43:59;2.42;;;1.70;;
18596;SDS011;9428;50.950;6.912;2023-05-10T15:46:46;4.43;;;2.05;;
18596;SDS011;9428;50.950;6.912;2023-05-10T15:49:33;3.63;;;1.52;;
18596;SDS011;9428;50.950;6.912;2023-05-10T15:52:21;4.85;;;2.47;;
18596;SDS011;9428;50.950;6.912;2023-05-10T15:55:10;2.72;;;1.83;;
18596;SDS011;9428;50.950;6.912;2023-05-10T15:57:58;3.63;;;1.60;;
18596;SDS011;9428;50.950;6.912;2023-05-10T16:00:45;2.50;;;1.40;;
18596;SDS011;9428;50.950;6.912;2023-05-10T16:03:32;3.88;;;2.03;;
18596;SDS011;9428;50.950;6.912;2023-05-10T16:06:20;2.85;;;1.90;;
18596;SDS011;9428;50.950;6.912;2023-05-10T16:09:07;3.85;;;2.25;;
18596;SDS011;9428;50.950;6.912;2023-05-10T16:11:56;2.97;;;1.80;;
18596;SDS011;9428;50.950;6.912;2023-05-10T16:14:43;2.70;;;1.88;;
18596;SDS011;9428;50.950;6.912;2023-05-10T16:17:31;3.35;;;1.60;;
18596;SDS011;9428;50.950;6.912;2023-05-10T16:20:18;2.05;;;1.75;;
18596;SDS011;9428;50.950;6.912;2023-05-10T16:23:05;1.83;;;1.60;;
18596;SDS011;9428;50.950;6.912;2023-05-10T16:25:53;4.20;;;1.98;;
18596;SDS011;9428;50.950;6.912;2023-05-10T16:28:45;2.63;;;2.03;;
18596;SDS011;9428;50.950;6.912;2023-05-10T16:31:32;4.88;;;2.10;;
18596;SDS011;9428;50.950;6.912;2023-05-10T16:34:19;3.05;;;2.00;;
18596;SDS011;9428;50.950;6.912;2023-05-10T16:37:08;1.85;;;1.65;;
18596;SDS011;9428;50.950;6.912;2023-05-10T16:39:56;4.05;;;2.30;;
18596;SDS011;9428;50.950;6.912;2023-05-10T16:42:43;3.67;;;2.30;;
18596;SDS011;9428;50.950;6.912;2023-05-10T16:45:32;3.60;;;1.90;;
18596;SDS011;9428;50.950;6.912;2023-05-10T16:48:20;5.55;;;2.15;;
18596;SDS011;9428;50.950;6.912;2023-05-10T16:51:09;2.65;;;1.55;;
18596;SDS011;9428;50.950;6.912;2023-05-10T16:53:56;3.35;;;1.85;;
18596;SDS011;9428;50.950;6.912;2023-05-10T16:56:44;3.72;;;2.30;;
18596;SDS011;9428;50.950;6.912;2023-05-10T16:59:31;1.92;;;1.70;;
18596;SDS011;9428;50.950;6.912;2023-05-10T17:02:20;4.32;;;2.25;;